Main page
METAR-TAF:

METAR-TAF

Airports :

Birmingham Airport

Birmingham, England

latitude: 52-27N, longitude: 001-44W, elevation: 99 m

Current weather observation

The report was made 15 minutes ago, at 19:20 UTC
Wind 4 kt from the North/Northwest
Temperature 22°C
Humidity 60%
Pressure 1015 hPa
Visibility 10 km or more
Few clouds at a height of 3600 ft

METAR: EGBB 211920Z 33004KT 9999 FEW036 22/14 Q1015

Time: 20:35 (19:35 UTC)

Forecast

The report was made 2 hours and 42 minutes ago, at 16:53 UTC
Forecast valid from 21 at 18 UTC to 22 at 18 UTC
Wind 8 kt from the West/Northwest
Visibility 10 km or more
Scattered clouds at a height of 4500 ft
Probability 30%
from 22 at 04 UTC to 22 at 08 UTC
Visibility: 8000 m

TAF: EGBB 211653Z 2118/2218 29008KT 9999 SCT045 PROB30 2204/2208 8000

Weather observations and forecasts of more than 4000 airports (METAR and TAF reports).

The available stations are represented by yellow and red dots on the map.

Hover mouse over dot to see the name of the station.

Then click to see weather observations and forecasts.

To change the map : click on the green buttons with a black cross to zoom in, on the green button with a dash to zoom out, or on the green arrows for adjacent maps.


METAR-TAF: